LIEE/CAG METAR and TAF weather

Enter ICAO airport designator
Station Type Date Time Source
LIEE METAR 2020/07/08 18:50 UTC NOAA

LIEE 081850Z 14005KT CAVOK 25/20 Q1016


Station Type Date Time Source
LIEE Decoded METAR 2020/07/08 18:50 UTC NOAA

Cagliari / Elmas, Italy (LIEE) 39-15N 009-04E 5M
Jul 08, 2020 - 02:50 PM EDT / 2020.07.08 1850 UTC
Wind: from the SE (140 degrees) at 6 MPH (5 KT):0
Visibility: greater than 7 mile(s):0
Temperature: 77 F (25 C)
Dew Point: 68 F (20 C)
Relative Humidity: 73%
Pressure (altimeter): 30.00 in. Hg (1016 hPa)
ob: LIEE 081850Z 14005KT CAVOK 25/20 Q1016
cycle: 19

Station Type Date Time Source
LIEE TAF 2020/07/08 18:33 UTC NOAA

TAF LIEE 081925Z 0818/0918 CNL

Example: see airport list